Time;durP1;ratioP1;P1;durP2;ratioP2;P2;SDS_P1;SDS_P2;PMS_P1;PMS_P2;Temp;Humidity;BMP_temperature;BMP_pressure;BME280_temperature;BME280_humidity;BME280_pressure;Samples;Min_cycle;Max_cycle;Signal;HPM_P1;HPM_P2
2022/12/05 00:00:07;;;;;;;21.83;13.95;;;4.30;99.90;;;;;;5090910;28;20039;-87
2022/12/05 00:02:33;;;;;;;24.73;14.10;;;4.30;99.90;;;;;;5105665;28;20696;-87
2022/12/05 00:04:59;;;;;;;21.88;14.13;;;4.30;99.90;;;;;;5087638;28;20071;-87
2022/12/05 00:07:25;;;;;;;23.00;14.55;;;4.30;99.90;;;;;;5100583;28;20078;-87
2022/12/05 00:09:50;;;;;;;24.17;14.10;;;4.30;99.90;;;;;;5105306;28;20477;-87
2022/12/05 00:12:16;;;;;;;21.80;13.98;;;4.40;99.90;;;;;;5106930;28;20053;-87
2022/12/05 00:14:41;;;;;;;21.70;13.48;;;4.40;99.90;;;;;;5090716;28;20039;-88
2022/12/05 00:17:07;;;;;;;23.67;15.05;;;4.40;99.90;;;;;;5093122;28;20081;-87
2022/12/05 00:19:32;;;;;;;25.45;13.77;;;4.40;99.90;;;;;;5106842;28;20077;-86
2022/12/05 00:21:58;;;;;;;24.10;14.13;;;4.40;99.90;;;;;;5088308;28;20036;-87
2022/12/05 00:24:23;;;;;;;24.35;14.38;;;4.40;99.90;;;;;;5097572;28;20035;-87
2022/12/05 00:26:49;;;;;;;25.70;14.75;;;4.50;99.90;;;;;;5106375;28;20382;-87
2022/12/05 00:29:15;;;;;;;21.85;14.00;;;4.50;99.90;;;;;;5090029;28;20036;-88
2022/12/05 00:31:40;;;;;;;25.50;14.82;;;4.50;99.90;;;;;;5105488;28;20130;-88
2022/12/05 00:34:06;;;;;;;23.30;14.15;;;4.50;99.90;;;;;;5107575;28;20043;-89
2022/12/05 00:36:35;;;;;;;25.23;14.65;;;4.60;99.90;;;;;;5106943;28;20047;-88
2022/12/05 00:39:05;;;;;;;26.35;16.05;;;4.50;99.90;;;;;;5107899;28;20036;-87
2022/12/05 00:41:31;;;;;;;24.70;15.07;;;4.50;99.90;;;;;;5089592;28;20054;-88
2022/12/05 00:43:58;;;;;;;27.02;15.93;;;4.50;99.90;;;;;;5103992;28;20050;-88
2022/12/05 00:46:27;;;;;;;26.45;15.77;;;4.50;99.90;;;;;;5105851;28;20093;-86
2022/12/05 00:48:54;;;;;;;25.75;15.35;;;4.50;99.90;;;;;;5105840;28;20050;-87
2022/12/05 00:51:25;;;;;;;25.20;16.27;;;4.50;99.90;;;;;;5105890;28;20036;-87
2022/12/05 00:53:51;;;;;;;26.15;15.70;;;4.50;99.90;;;;;;5103193;28;20710;-88
2022/12/05 00:56:20;;;;;;;25.27;15.82;;;4.50;99.90;;;;;;5092601;28;20047;-87
2022/12/05 00:58:45;;;;;;;25.92;15.93;;;4.50;99.90;;;;;;5107289;28;20047;-88
2022/12/05 01:01:15;;;;;;;28.23;17.58;;;4.50;99.90;;;;;;5106198;28;20044;-88
2022/12/05 01:03:42;;;;;;;26.95;15.90;;;4.50;99.90;;;;;;5106452;28;20560;-87
2022/12/05 01:06:09;;;;;;;25.17;15.77;;;4.50;99.90;;;;;;5104830;28;20059;-86
2022/12/05 01:08:35;;;;;;;27.73;16.67;;;4.50;99.90;;;;;;5106684;28;20054;-86
2022/12/05 01:11:01;;;;;;;28.33;17.50;;;4.50;99.90;;;;;;5105358;28;20160;-87
2022/12/05 01:13:27;;;;;;;28.50;17.38;;;4.50;99.90;;;;;;5106162;28;20123;-88
2022/12/05 01:15:53;;;;;;;27.63;17.35;;;4.60;99.90;;;;;;5089794;28;20130;-87
2022/12/05 01:18:20;;;;;;;30.25;17.50;;;4.60;99.90;;;;;;5088907;28;20150;-88
2022/12/05 01:20:46;;;;;;;28.23;16.90;;;4.60;99.90;;;;;;5089043;28;20587;-87
2022/12/05 01:23:12;;;;;;;26.65;16.95;;;5.00;99.90;;;;;;5105203;28;20086;-88
2022/12/05 01:25:47;;;;;;;29.17;18.00;;;4.60;99.90;;;;;;5088719;28;20097;-87
2022/12/05 01:28:14;;;;;;;29.85;17.50;;;4.60;99.90;;;;;;5106521;28;20131;-87
2022/12/05 01:30:42;;;;;;;28.77;17.95;;;5.20;99.90;;;;;;5089859;28;20046;-87
2022/12/05 01:33:09;;;;;;;30.15;18.00;;;4.70;99.90;;;;;;5089562;28;20086;-87
2022/12/05 01:35:36;;;;;;;25.27;16.85;;;4.80;99.90;;;;;;5087382;28;20043;-88
2022/12/05 01:38:02;;;;;;;31.65;18.33;;;4.60;99.90;;;;;;5106121;28;20096;-87
2022/12/05 01:40:29;;;;;;;28.35;17.50;;;4.70;99.90;;;;;;5088746;28;20501;-88
2022/12/05 01:42:55;;;;;;;27.85;17.45;;;4.60;99.90;;;;;;5104891;28;20048;-87
2022/12/05 01:45:37;;;;;;;28.80;18.13;;;4.60;99.90;;;;;;5100349;28;20044;-87
2022/12/05 01:48:08;;;;;;;30.27;17.83;;;4.60;99.90;;;;;;5089770;28;20410;-88
2022/12/05 01:50:34;;;;;;;32.15;18.45;;;4.60;99.90;;;;;;5105906;28;20043;-87
2022/12/05 01:53:01;;;;;;;29.65;17.92;;;4.70;99.90;;;;;;5103866;28;20039;-88
2022/12/05 01:55:27;;;;;;;28.95;17.52;;;4.60;99.90;;;;;;5107849;28;20320;-87
2022/12/05 01:57:52;;;;;;;28.42;17.65;;;4.60;99.90;;;;;;5109644;28;20079;-88
2022/12/05 02:00:20;;;;;;;32.13;19.27;;;4.60;99.90;;;;;;5109958;28;20059;-87
2022/12/05 02:02:54;;;;;;;32.03;19.73;;;4.70;99.90;;;;;;5109485;28;20500;-87
2022/12/05 02:05:26;;;;;;;33.70;18.98;;;4.60;99.90;;;;;;5109025;28;20405;-88
2022/12/05 02:07:52;;;;;;;34.23;18.20;;;4.60;99.90;;;;;;5108992;28;20452;-88
2022/12/05 02:10:18;;;;;;;33.65;19.67;;;4.70;99.90;;;;;;5110320;28;20100;-88
2022/12/05 02:12:45;;;;;;;30.83;18.92;;;4.70;99.90;;;;;;5102829;28;20386;-87
2022/12/05 02:15:39;;;;;;;39.40;20.13;;;4.70;99.90;;;;;;5095197;28;20185;-88
2022/12/05 02:18:17;;;;;;;37.30;19.65;;;4.70;99.90;;;;;;5090371;28;20397;-88
2022/12/05 02:20:45;;;;;;;35.10;19.50;;;4.70;99.90;;;;;;5090540;28;20050;-88
2022/12/05 02:23:28;;;;;;;33.53;19.33;;;4.70;99.90;;;;;;5108578;28;20056;-87
2022/12/05 02:25:53;;;;;;;;;;;4.70;99.90;;;;;;5108410;28;20044;-88
2022/12/05 02:28:45;;;;;;;38.38;20.10;;;4.70;99.90;;;;;;5110425;28;19919;-88
2022/12/05 02:31:49;;;;;;;41.42;21.02;;;4.70;99.90;;;;;;5107094;28;20035;-87
2022/12/05 02:34:38;;;;;;;35.95;20.52;;;4.70;99.90;;;;;;5071071;28;20055;-88
2022/12/05 02:37:25;;;;;;;40.65;20.75;;;4.70;99.90;;;;;;5106444;28;20079;-88
2022/12/05 02:40:14;;;;;;;39.55;21.27;;;4.70;99.90;;;;;;5107407;28;20524;-87
2022/12/05 02:42:58;;;;;;;39.40;20.40;;;4.70;99.90;;;;;;5109544;28;20414;-88
2022/12/05 02:45:27;;;;;;;43.42;21.08;;;4.70;99.90;;;;;;5090811;28;20036;-87
2022/12/05 02:47:53;;;;;;;38.85;20.35;;;4.70;99.90;;;;;;5109588;28;20043;-88
2022/12/05 02:50:23;;;;;;;44.95;22.08;;;4.80;99.90;;;;;;5093308;28;20043;-87
2022/12/05 02:52:52;;;;;;;41.88;21.35;;;4.70;99.90;;;;;;5108858;28;20042;-88
2022/12/05 02:55:19;;;;;;;41.08;22.35;;;4.80;99.90;;;;;;5109655;28;20614;-88
2022/12/05 02:57:50;;;;;;;42.40;22.25;;;4.70;99.90;;;;;;5109553;28;20097;-88
2022/12/05 03:00:16;;;;;;;49.47;23.25;;;4.70;99.90;;;;;;5108907;28;20046;-88
2022/12/05 03:02:41;;;;;;;47.10;23.25;;;4.80;99.90;;;;;;5110300;28;20043;-87
2022/12/05 03:05:35;;;;;;;41.40;21.33;;;4.80;99.90;;;;;;5090863;28;20052;-88
2022/12/05 03:08:04;;;;;;;42.88;22.55;;;4.80;99.90;;;;;;5108332;28;20154;-89
2022/12/05 03:10:32;;;;;;;42.53;22.58;;;5.50;99.90;;;;;;5091869;28;20044;-88
2022/12/05 03:13:11;;;;;;;43.90;22.45;;;4.80;99.90;;;;;;5108719;28;20043;-88
2022/12/05 03:15:44;;;;;;;44.80;23.05;;;4.80;99.90;;;;;;5099464;28;20070;-88
2022/12/05 03:18:24;;;;;;;42.25;21.65;;;4.90;99.90;;;;;;5082504;28;20035;-89
2022/12/05 03:20:58;;;;;;;40.38;22.15;;;4.90;99.90;;;;;;5092579;28;20149;-88
2022/12/05 03:23:33;;;;;;;46.28;21.65;;;4.90;99.90;;;;;;5096399;28;20044;-88
2022/12/05 03:26:10;;;;;;;39.90;21.58;;;4.90;99.90;;;;;;5090482;28;20170;-88
2022/12/05 03:29:08;;;;;;;36.25;19.08;;;4.90;99.90;;;;;;5108936;28;20165;-88
2022/12/05 03:31:41;;;;;;;39.40;20.35;;;5.00;99.90;;;;;;5078961;28;20462;-88
2022/12/05 03:34:15;;;;;;;37.58;20.17;;;5.00;99.90;;;;;;5102498;28;20118;-87
2022/12/05 03:36:45;;;;;;;40.45;20.15;;;4.90;99.90;;;;;;5098156;28;20036;-88
2022/12/05 03:39:21;;;;;;;38.70;19.85;;;5.00;99.90;;;;;;5109109;28;20039;-88
2022/12/05 03:42:07;;;;;;;35.72;18.95;;;5.00;99.90;;;;;;5108551;28;20073;-88
2022/12/05 03:45:05;;;;;;;38.42;18.58;;;5.00;99.90;;;;;;5107188;28;20058;-88
2022/12/05 03:47:43;;;;;;;35.10;18.60;;;5.00;99.90;;;;;;5105501;28;20060;-88
2022/12/05 03:50:18;;;;;;;31.83;16.63;;;5.00;99.90;;;;;;5109041;28;20090;-88
2022/12/05 03:52:56;;;;;;;33.80;18.30;;;5.00;99.90;;;;;;5091623;28;20086;-88
2022/12/05 03:55:26;;;;;;;30.95;17.17;;;5.00;99.90;;;;;;5104179;28;20043;-87
2022/12/05 03:58:01;;;;;;;28.95;16.40;;;5.00;99.90;;;;;;5088818;28;20040;-88
2022/12/05 04:00:32;;;;;;;30.73;17.40;;;5.00;99.90;;;;;;5090724;28;20044;-87
2022/12/05 04:03:13;;;;;;;30.90;17.20;;;5.10;99.90;;;;;;5091650;28;20525;-87
2022/12/05 04:05:51;;;;;;;30.50;16.10;;;5.10;99.90;;;;;;5108682;28;20047;-88
2022/12/05 04:08:35;;;;;;;27.23;15.57;;;5.00;99.90;;;;;;5108492;28;20051;-87
2022/12/05 04:11:07;;;;;;;28.85;15.88;;;5.10;99.90;;;;;;5108811;28;20485;-87
2022/12/05 04:13:42;;;;;;;26.02;15.93;;;5.10;99.90;;;;;;5109551;28;20092;-87
2022/12/05 04:22:38;;;;;;;25.00;13.95;;;5.10;99.90;;;;;;5089066;28;20065;-86
2022/12/05 04:28:16;;;;;;;22.45;14.15;;;5.10;99.90;;;;;;5108270;28;20051;-87
2022/12/05 04:31:03;;;;;;;22.02;14.25;;;5.10;99.90;;;;;;5108621;28;20043;-86
2022/12/05 04:33:51;;;;;;;22.55;14.20;;;5.10;99.90;;;;;;5109348;28;20039;-87
2022/12/05 04:36:24;;;;;;;25.20;13.90;;;5.10;99.90;;;;;;5106603;28;20112;-88
2022/12/05 04:39:11;;;;;;;20.25;13.10;;;5.10;99.90;;;;;;5088514;28;20067;-87
2022/12/05 04:41:40;;;;;;;22.02;13.60;;;5.10;99.90;;;;;;5102482;28;20051;-88
2022/12/05 04:44:09;;;;;;;21.15;14.27;;;5.10;99.90;;;;;;5088627;28;20048;-88
2022/12/05 04:46:37;;;;;;;22.05;13.05;;;5.10;99.90;;;;;;5102366;28;20090;-89
2022/12/05 04:49:07;;;;;;;21.25;13.65;;;5.10;99.90;;;;;;5108179;28;20127;-87
2022/12/05 04:51:36;;;;;;;21.98;13.60;;;5.10;99.90;;;;;;5089998;28;20071;-87
2022/12/05 04:54:15;;;;;;;22.00;13.77;;;5.10;99.90;;;;;;5106714;28;20097;-87
2022/12/05 04:56:54;;;;;;;20.63;12.30;;;5.10;99.90;;;;;;5106119;28;20086;-87
2022/12/05 04:59:20;;;;;;;20.98;13.27;;;5.10;99.90;;;;;;5110169;28;20039;-88
2022/12/05 05:01:54;;;;;;;20.63;12.80;;;5.10;99.90;;;;;;5109158;28;20553;-88
2022/12/05 05:04:25;;;;;;;19.70;12.50;;;5.10;99.90;;;;;;5090461;28;20090;-88
2022/12/05 05:06:52;;;;;;;19.70;13.00;;;5.10;99.90;;;;;;5091382;28;20042;-88
2022/12/05 05:09:24;;;;;;;18.83;11.90;;;5.10;99.90;;;;;;5087641;28;20490;-88
2022/12/05 05:11:52;;;;;;;21.17;12.00;;;5.10;99.90;;;;;;5107612;28;20040;-88
2022/12/05 05:14:18;;;;;;;19.60;12.45;;;5.70;99.90;;;;;;5107298;28;20123;-88
2022/12/05 05:16:47;;;;;;;16.55;11.65;;;5.80;99.90;;;;;;5090040;28;20487;-87
2022/12/05 05:19:12;;;;;;;14.30;10.35;;;5.10;99.90;;;;;;5090147;28;20048;-89
2022/12/05 05:21:42;;;;;;;13.55;9.85;;;5.10;99.90;;;;;;5090630;28;20089;-88
2022/12/05 05:24:11;;;;;;;12.75;9.38;;;5.10;99.90;;;;;;5105846;28;20054;-87
2022/12/05 05:26:44;;;;;;;10.27;8.00;;;5.10;99.90;;;;;;5105625;28;20039;-87
2022/12/05 05:29:11;;;;;;;10.50;8.00;;;5.10;99.90;;;;;;5108963;28;20048;-88
2022/12/05 05:31:38;;;;;;;9.68;8.10;;;5.10;99.90;;;;;;5090436;28;20082;-87
2022/12/05 05:34:05;;;;;;;8.98;7.03;;;5.10;99.90;;;;;;5096721;28;20051;-87
2022/12/05 05:36:30;;;;;;;9.65;6.88;;;5.20;99.90;;;;;;5114423;28;20047;-88
2022/12/05 05:39:01;;;;;;;9.93;6.85;;;5.10;99.90;;;;;;5113322;28;20047;-88
2022/12/05 05:41:29;;;;;;;9.15;6.88;;;5.20;99.90;;;;;;5113918;28;20058;-87
2022/12/05 05:43:56;;;;;;;9.57;6.18;;;5.20;99.90;;;;;;5114142;28;20086;-88
2022/12/05 05:46:24;;;;;;;6.68;5.68;;;5.10;99.90;;;;;;5113917;28;20092;-88
2022/12/05 05:48:50;;;;;;;6.90;5.75;;;5.20;99.90;;;;;;5098144;28;20546;-89
2022/12/05 05:51:17;;;;;;;7.97;6.30;;;5.10;99.90;;;;;;5113946;28;20036;-88
2022/12/05 05:53:47;;;;;;;7.50;6.53;;;5.20;99.90;;;;;;5097050;28;20050;-87
2022/12/05 05:56:16;;;;;;;8.25;5.80;;;5.20;99.90;;;;;;5096175;28;20078;-87
2022/12/05 05:58:42;;;;;;;7.43;6.28;;;5.40;99.90;;;;;;5114900;28;20088;-88
2022/12/05 06:01:10;;;;;;;8.27;6.50;;;4.50;99.90;;;;;;5114072;28;20043;-89
2022/12/05 06:03:36;;;;;;;7.25;6.35;;;5.20;99.90;;;;;;5113480;28;20528;-88
2022/12/05 06:06:05;;;;;;;6.97;6.18;;;5.20;99.90;;;;;;5112586;28;20051;-88
2022/12/05 06:08:33;;;;;;;7.80;6.63;;;5.20;99.90;;;;;;5093851;28;20043;-89
2022/12/05 06:11:04;;;;;;;7.65;6.68;;;5.20;99.90;;;;;;5096025;28;20031;-88
2022/12/05 06:13:29;;;;;;;6.90;6.10;;;5.20;99.90;;;;;;5114181;28;20840;-88
2022/12/05 06:15:55;;;;;;;7.95;6.13;;;5.20;99.90;;;;;;5112244;28;20028;-88
2022/12/05 06:18:20;;;;;;;9.07;6.55;;;5.20;99.90;;;;;;5104303;28;20713;-88
2022/12/05 06:21:12;;;;;;;8.43;6.63;;;5.20;99.90;;;;;;5097550;28;20126;-88
2022/12/05 06:23:39;;;;;;;7.93;6.40;;;5.20;99.90;;;;;;5090186;28;20055;-86
2022/12/05 06:26:08;;;;;;;9.32;6.78;;;5.20;99.90;;;;;;5109181;28;20540;-87
2022/12/05 06:28:34;;;;;;;9.15;7.10;;;5.20;99.90;;;;;;5130679;27;20054;-87
2022/12/05 06:31:09;;;;;;;10.13;6.80;;;5.20;99.90;;;;;;5095714;28;20027;-88
2022/12/05 06:33:35;;;;;;;9.65;6.35;;;5.20;99.90;;;;;;5096495;28;20051;-88
2022/12/05 06:36:10;;;;;;;8.80;6.95;;;5.30;99.90;;;;;;5110363;28;20035;-86
2022/12/05 06:38:36;;;;;;;8.43;6.78;;;5.30;99.90;;;;;;5111871;27;20031;-84
2022/12/05 06:41:10;;;;;;;8.93;7.15;;;5.30;99.90;;;;;;5109854;28;20056;-87
2022/12/05 06:43:36;;;;;;;9.75;7.43;;;5.30;99.90;;;;;;5107683;28;20036;-87
2022/12/05 06:46:07;;;;;;;9.60;7.38;;;5.40;99.90;;;;;;5109489;28;20046;-87
2022/12/05 06:48:32;;;;;;;9.52;7.03;;;5.30;99.90;;;;;;5110654;28;20123;-88
2022/12/05 06:50:58;;;;;;;9.85;7.55;;;5.40;99.90;;;;;;5105771;28;20508;-88
2022/12/05 06:53:24;;;;;;;7.63;6.72;;;5.40;99.90;;;;;;5110978;28;20076;-88
2022/12/05 06:55:57;;;;;;;7.95;6.50;;;5.40;99.90;;;;;;5107377;28;20525;-86
2022/12/05 06:58:25;;;;;;;7.13;6.15;;;5.40;99.90;;;;;;5106192;27;20072;-90
2022/12/05 07:03:35;;;;;;;5.90;4.90;;;6.10;99.90;;;;;;5093057;28;20048;-89
2022/12/05 07:06:02;;;;;;;7.28;5.13;;;5.30;99.90;;;;;;5091372;28;20054;-88
2022/12/05 07:08:28;;;;;;;5.68;4.60;;;5.40;99.90;;;;;;5107234;28;20031;-88
2022/12/05 07:10:53;;;;;;;6.05;5.03;;;5.30;99.90;;;;;;5092460;28;20084;-88
2022/12/05 07:13:19;;;;;;;5.63;4.30;;;5.40;99.90;;;;;;5087805;28;20781;-87
2022/12/05 07:15:49;;;;;;;5.15;4.03;;;5.40;99.90;;;;;;5089423;28;20141;-87
2022/12/05 07:18:16;;;;;;;5.45;4.57;;;5.30;99.90;;;;;;5089548;28;20040;-88
2022/12/05 07:20:42;;;;;;;6.05;5.05;;;5.30;99.90;;;;;;5105561;28;20036;-88
2022/12/05 07:23:09;;;;;;;8.23;4.95;;;5.30;99.90;;;;;;5096529;28;20421;-91
2022/12/05 07:25:40;;;;;;;5.88;5.00;;;5.30;99.90;;;;;;5110392;28;20044;-89
2022/12/05 07:28:06;;;;;;;6.18;4.90;;;5.30;99.90;;;;;;5092776;28;20048;-90
2022/12/05 07:30:32;;;;;;;6.00;5.00;;;5.30;99.90;;;;;;5095155;28;20093;-88
2022/12/05 07:32:59;;;;;;;7.38;4.97;;;5.30;99.90;;;;;;5111866;28;20047;-89
2022/12/05 07:35:24;;;;;;;8.20;5.65;;;5.30;99.90;;;;;;5095090;28;20036;-90
2022/12/05 07:37:50;;;;;;;8.63;5.57;;;5.30;99.90;;;;;;5094334;28;20489;-89
2022/12/05 07:40:16;;;;;;;7.85;5.53;;;5.30;99.90;;;;;;5096223;28;20077;-90
2022/12/05 07:42:41;;;;;;;7.65;5.53;;;5.30;99.90;;;;;;5096430;28;20045;-89
2022/12/05 07:45:08;;;;;;;7.10;5.20;;;5.30;99.90;;;;;;5092321;28;20044;-89
2022/12/05 07:47:33;;;;;;;8.43;6.15;;;5.30;99.90;;;;;;5094674;28;20043;-87
2022/12/05 07:49:59;;;;;;;8.27;6.10;;;5.30;99.90;;;;;;5106331;28;20036;-88
2022/12/05 07:52:28;;;;;;;8.25;6.13;;;5.30;99.90;;;;;;5089375;28;20040;-88
2022/12/05 07:54:54;;;;;;;8.90;5.97;;;5.30;99.90;;;;;;5089874;28;20083;-89
2022/12/05 07:57:19;;;;;;;8.85;6.82;;;5.30;99.90;;;;;;5105020;28;20085;-87
2022/12/05 07:59:45;;;;;;;10.07;6.93;;;5.30;99.90;;;;;;5091855;28;20139;-87
2022/12/05 08:02:10;;;;;;;7.97;6.30;;;5.10;99.90;;;;;;5109193;28;20051;-86
2022/12/05 08:04:36;;;;;;;9.93;6.68;;;5.30;99.90;;;;;;5108154;28;20052;-88
2022/12/05 08:07:05;;;;;;;8.00;6.25;;;5.30;99.90;;;;;;5091594;28;20135;-87
2022/12/05 08:09:30;;;;;;;10.85;6.35;;;5.30;99.90;;;;;;5106513;28;20055;-88
2022/12/05 08:11:56;;;;;;;13.27;7.38;;;5.70;99.90;;;;;;5106686;28;20050;-88
2022/12/05 08:14:22;;;;;;;9.40;6.60;;;5.30;99.90;;;;;;5089958;28;20044;-89
2022/12/05 08:16:47;;;;;;;10.68;6.88;;;5.30;99.90;;;;;;5090658;28;20039;-87
2022/12/05 08:19:15;;;;;;;9.38;6.57;;;5.30;99.90;;;;;;5091372;28;20409;-87
2022/12/05 08:21:42;;;;;;;9.10;6.32;;;5.30;99.90;;;;;;5107703;28;20044;-87
2022/12/05 08:24:08;;;;;;;9.38;6.03;;;5.30;99.90;;;;;;5109810;28;20503;-88
2022/12/05 08:26:35;;;;;;;8.30;6.32;;;5.30;99.90;;;;;;5108643;28;20044;-87
2022/12/05 08:29:04;;;;;;;9.30;6.43;;;4.80;99.90;;;;;;5107779;28;20055;-85
2022/12/05 08:31:33;;;;;;;11.13;7.05;;;5.30;99.90;;;;;;5109242;28;20052;-87
2022/12/05 08:33:59;;;;;;;10.00;6.72;;;5.30;99.90;;;;;;5109058;28;20048;-89
2022/12/05 08:36:27;;;;;;;13.82;7.00;;;5.30;99.90;;;;;;5108529;28;20135;-86
2022/12/05 08:38:57;;;;;;;11.60;7.38;;;5.30;99.90;;;;;;5108353;28;20039;-88
2022/12/05 08:41:27;;;;;;;8.98;6.35;;;5.30;99.90;;;;;;5107852;28;20180;-87
2022/12/05 08:43:53;;;;;;;12.00;7.20;;;5.30;99.90;;;;;;5108932;28;20047;-88
2022/12/05 08:46:20;;;;;;;12.48;7.20;;;5.30;99.90;;;;;;5109750;28;20118;-87
2022/12/05 08:48:46;;;;;;;9.50;6.65;;;5.30;99.90;;;;;;5107732;28;20042;-87
2022/12/05 08:51:13;;;;;;;12.80;7.65;;;5.30;99.90;;;;;;5082870;28;20047;-88
2022/12/05 08:53:40;;;;;;;17.55;11.25;;;5.30;99.90;;;;;;5091097;28;20032;-87
2022/12/05 08:56:08;;;;;;;11.27;6.68;;;6.70;99.90;;;;;;5108007;28;20721;-86
2022/12/05 08:58:34;;;;;;;18.25;10.32;;;5.20;99.90;;;;;;5108233;28;20052;-89
2022/12/05 09:01:20;;;;;;;14.73;10.32;;;5.30;99.90;;;;;;5108773;28;20039;-87
2022/12/05 09:03:46;;;;;;;12.23;7.28;;;5.30;99.90;;;;;;5108646;28;20092;-88
2022/12/05 09:06:20;;;;;;;13.02;9.82;;;5.30;99.90;;;;;;5106772;28;20052;-87
2022/12/05 09:08:47;;;;;;;11.35;7.03;;;5.30;99.90;;;;;;5108712;28;20123;-88
2022/12/05 09:11:14;;;;;;;10.68;6.88;;;;;;;;;;5101545;28;20047;-87
2022/12/05 09:13:43;;;;;;;11.10;7.15;;;5.40;99.90;;;;;;5109425;28;20042;-90
2022/12/05 09:16:21;;;;;;;10.10;7.18;;;5.20;99.90;;;;;;5107743;28;20044;-85
2022/12/05 09:18:51;;;;;;;10.18;7.07;;;5.30;99.90;;;;;;5105638;27;20048;-87
2022/12/05 09:21:22;;;;;;;12.52;7.13;;;5.10;99.90;;;;;;5103277;27;20051;-87
2022/12/05 09:23:49;;;;;;;12.43;6.93;;;5.30;99.90;;;;;;5108633;28;20051;-85
2022/12/05 09:26:17;;;;;;;10.57;7.50;;;5.40;99.90;;;;;;5109075;28;20172;-86
2022/12/05 09:28:46;;;;;;;11.35;8.07;;;5.30;99.90;;;;;;5108982;28;20048;-89
2022/12/05 09:31:16;;;;;;;8.50;6.47;;;5.30;99.90;;;;;;5109224;28;20355;-87
2022/12/05 09:33:42;;;;;;;12.07;7.25;;;5.20;99.90;;;;;;5090462;28;20043;-87
2022/12/05 09:36:19;;;;;;;11.77;7.60;;;5.20;99.90;;;;;;5106166;28;20059;-86
2022/12/05 09:38:45;;;;;;;12.77;6.72;;;5.30;99.90;;;;;;5108135;28;20054;-86
2022/12/05 09:44:51;;;;;;;9.40;6.95;;;5.30;99.90;;;;;;5095305;28;20051;-88
2022/12/05 09:47:21;;;;;;;9.13;6.25;;;5.30;99.90;;;;;;5108104;28;20123;-87
2022/12/05 09:49:53;;;;;;;11.40;7.72;;;5.80;99.90;;;;;;5090493;28;20047;-87
2022/12/05 09:52:36;;;;;;;16.45;9.52;;;5.20;99.90;;;;;;5097651;28;20044;-88
2022/12/05 09:55:12;;;;;;;9.63;7.25;;;5.10;99.90;;;;;;5110057;28;20113;-88
2022/12/05 09:58:02;;;;;;;10.25;6.78;;;5.30;99.90;;;;;;5100705;28;20040;-90
2022/12/05 10:00:31;;;;;;;8.57;6.20;;;5.20;99.90;;;;;;5091783;28;20048;-90
2022/12/05 10:03:20;;;;;;;9.77;6.53;;;5.30;99.90;;;;;;5126688;28;20039;-88
2022/12/05 10:06:00;;;;;;;8.98;6.70;;;5.20;99.90;;;;;;5109943;28;20060;-90
2022/12/05 10:08:31;;;;;;;10.57;6.32;;;5.20;99.90;;;;;;5092362;28;20117;-89
2022/12/05 10:11:08;;;;;;;11.77;6.95;;;5.20;99.90;;;;;;5091762;28;20044;-91
2022/12/05 10:13:39;;;;;;;8.95;7.00;;;5.20;99.90;;;;;;5109537;28;20379;-91
2022/12/05 10:16:22;;;;;;;11.43;8.10;;;5.20;99.90;;;;;;5110597;28;20569;-89
2022/12/05 10:18:54;;;;;;;9.88;6.45;;;5.20;99.90;;;;;;5115227;28;20047;-91
2022/12/05 10:21:37;;;;;;;11.32;6.32;;;5.20;99.90;;;;;;5114084;28;20040;-90
2022/12/05 10:24:17;;;;;;;13.43;6.43;;;5.20;99.90;;;;;;5113260;28;20528;-90
2022/12/05 10:26:52;;;;;;;9.35;6.57;;;5.20;99.90;;;;;;5098206;28;20044;-90
2022/12/05 10:29:32;;;;;;;9.18;6.40;;;5.20;99.90;;;;;;5112257;28;20474;-88
2022/12/05 10:32:14;;;;;;;10.07;6.57;;;5.20;99.90;;;;;;5114479;28;20445;-90
2022/12/05 10:34:41;;;;;;;12.23;7.22;;;;;;;;;;5115453;28;20058;-90
2022/12/05 10:37:19;;;;;;;10.07;6.63;;;5.30;99.90;;;;;;5109361;27;20039;-90
2022/12/05 10:39:47;;;;;;;9.57;6.35;;;5.20;99.90;;;;;;5117171;28;20043;-87
2022/12/05 10:42:16;;;;;;;7.70;5.80;;;5.20;99.90;;;;;;5110579;28;20040;-87
2022/12/05 10:44:43;;;;;;;10.60;7.80;;;5.20;99.90;;;;;;5113007;28;20063;-89
2022/12/05 10:47:10;;;;;;;10.40;6.63;;;5.20;99.90;;;;;;5134228;27;20184;-89
2022/12/05 10:49:38;;;;;;;11.30;6.82;;;5.20;99.90;;;;;;5140378;27;20381;-88
2022/12/05 10:52:06;;;;;;;11.90;6.88;;;5.10;99.90;;;;;;5121632;28;20047;-89
2022/12/05 10:54:41;;;;;;;11.23;6.85;;;4.80;99.90;;;;;;5114061;28;20040;-88
2022/12/05 10:57:25;;;;;;;9.68;7.28;;;5.20;99.90;;;;;;5098800;28;20055;-88
2022/12/05 10:59:55;;;;;;;11.00;6.93;;;;;;;;;;5121071;28;20101;-88
2022/12/05 11:02:28;;;;;;;13.38;7.18;;;;;;;;;;5117999;28;20054;-87
2022/12/05 11:04:55;;;;;;;13.80;11.18;;;;;;;;;;5107046;28;20056;-86
2022/12/05 11:07:36;;;;;;;12.50;7.32;;;;;;;;;;5100790;28;20131;-88
2022/12/05 11:10:17;;;;;;;10.88;7.38;;;;;;;;;;5114134;28;20528;-88
2022/12/05 11:12:44;;;;;;;11.25;7.13;;;5.10;99.90;;;;;;5104181;28;20082;-89
2022/12/05 11:15:18;;;;;;;11.95;7.43;;;5.20;99.90;;;;;;5104319;28;20116;-86
2022/12/05 11:17:45;;;;;;;10.48;7.18;;;5.40;99.90;;;;;;5104959;28;20045;-88
2022/12/05 11:20:17;;;;;;;12.95;7.65;;;5.10;99.90;;;;;;5114380;28;20097;-89
2022/12/05 11:22:45;;;;;;;12.23;7.38;;;5.10;99.90;;;;;;5110174;28;20551;-88
2022/12/05 11:25:40;;;;;;;12.30;8.40;;;4.20;99.90;;;;;;5102407;28;20512;-85
2022/12/05 11:28:27;;;;;;;9.65;7.20;;;6.40;99.90;;;;;;5092886;28;20058;-86
2022/12/05 11:31:03;;;;;;;10.18;6.70;;;5.10;99.90;;;;;;5108503;28;20045;-86
2022/12/05 11:33:34;;;;;;;12.30;7.25;;;5.20;99.90;;;;;;5104425;28;20051;-86
2022/12/05 11:36:17;;;;;;;12.25;6.85;;;5.10;99.90;;;;;;5086975;28;20554;-87
2022/12/05 11:38:43;;;;;;;12.18;8.27;;;5.10;99.90;;;;;;5109213;28;20090;-87
2022/12/05 11:41:53;;;;;;;10.85;7.00;;;5.00;99.90;;;;;;5109223;28;20108;-86
2022/12/05 11:44:31;;;;;;;10.85;8.15;;;5.20;99.90;;;;;;5090289;28;20044;-87
2022/12/05 11:47:23;;;;;;;8.18;6.25;;;5.20;99.90;;;;;;5080177;28;20087;-88
2022/12/05 11:50:21;;;;;;;10.38;7.78;;;5.20;99.90;;;;;;5093850;28;20043;-86
2022/12/05 11:53:26;;;;;;;11.18;6.75;;;5.20;99.90;;;;;;5099448;28;20058;-89
2022/12/05 11:56:07;;;;;;;9.73;6.43;;;5.20;99.90;;;;;;5101519;28;20494;-88
2022/12/05 11:59:03;;;;;;;13.65;6.85;;;5.20;99.90;;;;;;5109322;28;20042;-90
2022/12/05 12:01:43;;;;;;;9.45;6.30;;;5.20;99.90;;;;;;5091708;28;20575;-90
2022/12/05 12:04:43;;;;;;;9.63;6.68;;;5.20;99.90;;;;;;5107154;28;20048;-87
2022/12/05 12:07:38;;;;;;;8.25;5.97;;;5.20;99.90;;;;;;5109312;28;20055;-86
2022/12/05 12:10:08;;;;;;;7.85;5.80;;;5.30;99.90;;;;;;5106763;27;20509;-87
2022/12/05 12:13:00;;;;;;;7.88;6.10;;;5.20;99.90;;;;;;5088651;28;20075;-87
2022/12/05 12:15:49;;;;;;;8.90;5.60;;;5.30;99.90;;;;;;5097605;28;20700;-86
2022/12/05 12:18:34;;;;;;;8.63;5.95;;;5.30;99.90;;;;;;5099789;28;20087;-87
2022/12/05 12:21:16;;;;;;;7.35;5.28;;;5.30;99.90;;;;;;5094043;28;20915;-86
2022/12/05 12:24:00;;;;;;;7.60;5.80;;;5.30;99.90;;;;;;5094173;28;20102;-87
2022/12/05 12:26:38;;;;;;;6.50;5.20;;;4.60;99.90;;;;;;5101683;28;20062;-87
2022/12/05 12:29:15;;;;;;;9.15;5.82;;;5.30;99.90;;;;;;5108147;28;20104;-85
2022/12/05 12:32:16;;;;;;;7.60;4.45;;;5.40;99.90;;;;;;5105981;28;20040;-86
2022/12/05 12:35:25;;;;;;;7.00;4.55;;;5.30;99.90;;;;;;5080610;28;20047;-87
2022/12/05 12:38:31;;;;;;;7.63;4.60;;;5.30;99.90;;;;;;5109097;28;20413;-89
2022/12/05 12:41:31;;;;;;;6.70;4.20;;;5.30;99.90;;;;;;5088802;28;20524;-88
2022/12/05 12:44:28;;;;;;;6.43;4.30;;;5.30;99.90;;;;;;5102215;28;20049;-87
2022/12/05 12:47:03;;;;;;;5.90;4.35;;;5.30;99.90;;;;;;5079396;28;20044;-87
2022/12/05 12:49:42;;;;;;;6.43;4.00;;;5.30;99.90;;;;;;5101582;28;20048;-89
2022/12/05 12:52:19;;;;;;;5.70;4.50;;;5.30;99.90;;;;;;5106244;28;20059;-88
2022/12/05 12:55:42;;;;;;;6.68;4.57;;;5.30;99.90;;;;;;5108419;28;20096;-85
2022/12/05 12:58:28;;;;;;;5.80;3.95;;;5.30;99.90;;;;;;5112857;27;20047;-87
2022/12/05 13:01:04;;;;;;;6.07;4.55;;;5.30;99.90;;;;;;5127694;27;20073;-86
2022/12/05 13:03:35;;;;;;;5.70;4.07;;;5.30;99.90;;;;;;5107342;28;20051;-89
2022/12/05 13:06:14;;;;;;;5.60;4.00;;;5.30;99.90;;;;;;5097815;28;20443;-87
2022/12/05 13:08:49;;;;;;;5.05;3.85;;;5.30;99.90;;;;;;5107829;28;20410;-86
2022/12/05 13:11:16;;;;;;;5.97;4.30;;;5.30;99.90;;;;;;5123422;27;20517;-87
2022/12/05 13:13:49;;;;;;;5.28;4.03;;;5.30;99.90;;;;;;5101729;28;20520;-86
2022/12/05 13:16:29;;;;;;;5.80;4.63;;;5.30;99.90;;;;;;5097708;28;20047;-86
2022/12/05 13:18:56;;;;;;;9.40;4.97;;;5.30;99.90;;;;;;5103719;28;20040;-86
2022/12/05 13:21:22;;;;;;;7.68;4.75;;;5.30;99.90;;;;;;5074665;28;20044;-87
2022/12/05 13:23:50;;;;;;;8.68;5.15;;;5.30;99.90;;;;;;5093027;28;20443;-85
2022/12/05 13:26:17;;;;;;;6.22;4.82;;;5.30;99.90;;;;;;5101187;28;20089;-86
2022/12/05 13:28:53;;;;;;;9.48;4.60;;;5.40;99.90;;;;;;5090084;28;20044;-85
2022/12/05 13:31:33;;;;;;;9.15;5.82;;;5.40;99.90;;;;;;5093775;28;20054;-87